createdAt,value
2017-01-03T00:00:44.008Z,1012.1
2017-01-03T00:01:43.945Z,1012.09
2017-01-03T00:02:43.884Z,1012.08
2017-01-03T00:03:43.819Z,1012.06
2017-01-03T00:04:43.756Z,1012.06
2017-01-03T00:05:43.694Z,1012.04
2017-01-03T00:06:43.631Z,1012.03
2017-01-03T00:07:43.567Z,1011.98
2017-01-03T00:08:43.506Z,1011.98
2017-01-03T00:09:43.443Z,1011.99
2017-01-03T00:10:43.379Z,1012.04
2017-01-03T00:11:43.316Z,1012.08
2017-01-03T00:12:43.253Z,1012.08
2017-01-03T00:13:43.191Z,1012.1
2017-01-03T00:14:43.127Z,1012.11
2017-01-03T00:15:43.064Z,1012.17
2017-01-03T00:16:43.001Z,1012.11
2017-01-03T00:17:43.141Z,1012.13
2017-01-03T00:18:42.875Z,1012.13
2017-01-03T00:19:42.812Z,1012.12
2017-01-03T00:20:42.749Z,1012.1
2017-01-03T00:21:42.687Z,1012.12
2017-01-03T00:22:42.623Z,1012.11
2017-01-03T00:23:42.560Z,1012.11
2017-01-03T00:24:42.505Z,1012.07
2017-01-03T00:25:42.434Z,1012.16
2017-01-03T00:26:42.371Z,1012.09
2017-01-03T00:27:42.308Z,1012.1
2017-01-03T00:28:42.246Z,1012.11
2017-01-03T00:29:42.183Z,1012.12
2017-01-03T00:30:42.120Z,1012.16
2017-01-03T00:31:42.056Z,1012.12
2017-01-03T00:32:42.001Z,1012.16
2017-01-03T00:33:41.930Z,1012.15
2017-01-03T00:34:41.868Z,1012.14
2017-01-03T00:35:41.805Z,1012.17
2017-01-03T00:36:41.743Z,1012.16
2017-01-03T00:37:41.681Z,1012.14
2017-01-03T00:38:41.616Z,1012.15
2017-01-03T00:39:41.554Z,1012.16
2017-01-03T00:40:41.490Z,1012.14
2017-01-03T00:41:41.427Z,1012.2
2017-01-03T00:42:41.364Z,1012.11
2017-01-03T00:43:41.302Z,1012.09
2017-01-03T00:44:41.239Z,1012.14
2017-01-03T00:45:41.177Z,1012.08
2017-01-03T00:46:41.114Z,1012.02
2017-01-03T00:47:41.050Z,1012.02
2017-01-03T00:48:40.988Z,1012.07
2017-01-03T00:49:40.926Z,1012.05
2017-01-03T00:50:40.862Z,1012.05
2017-01-03T00:51:40.798Z,1012.05
2017-01-03T00:52:40.735Z,1012.08
2017-01-03T00:53:40.672Z,1012.01
2017-01-03T00:54:40.609Z,1012.06
2017-01-03T00:55:40.550Z,1012
2017-01-03T00:56:40.484Z,1011.96
2017-01-03T00:57:40.421Z,1012
2017-01-03T00:58:40.359Z,1011.98
2017-01-03T00:59:40.295Z,1012.04
2017-01-03T01:01:10.329Z,1011.97
2017-01-03T01:02:10.265Z,1012.04
2017-01-03T01:03:10.201Z,1012
2017-01-03T01:04:10.139Z,1012.07
2017-01-03T01:05:10.075Z,1012.06
2017-01-03T01:06:10.014Z,1012.04
2017-01-03T01:07:09.949Z,1012.09
2017-01-03T01:08:09.887Z,1012.1
2017-01-03T01:09:09.823Z,1012.08
2017-01-03T01:10:09.760Z,1012.12
2017-01-03T01:11:09.697Z,1012.16
2017-01-03T01:12:09.634Z,1012.15
2017-01-03T01:13:09.573Z,1012.12
2017-01-03T01:14:09.509Z,1012.16
2017-01-03T01:15:09.446Z,1012.07
2017-01-03T01:16:09.382Z,1012.12
2017-01-03T01:17:09.320Z,1012.15
2017-01-03T01:18:09.258Z,1012.15
2017-01-03T01:19:09.194Z,1012.1
2017-01-03T01:20:09.130Z,1012.1
2017-01-03T01:21:09.068Z,1012.13
2017-01-03T01:22:09.004Z,1012.1
2017-01-03T01:23:08.942Z,1012.11
2017-01-03T01:24:08.878Z,1012.17
2017-01-03T01:25:08.817Z,1012.2
2017-01-03T01:26:08.753Z,1012.23
2017-01-03T01:27:08.689Z,1012.17
2017-01-03T01:28:08.626Z,1012.21
2017-01-03T01:29:08.565Z,1012.24
2017-01-03T01:30:08.500Z,1012.21
2017-01-03T01:31:08.438Z,1012.22
2017-01-03T01:32:08.374Z,1012.25
2017-01-03T01:33:08.312Z,1012.25
2017-01-03T01:34:08.248Z,1012.28
2017-01-03T01:35:08.185Z,1012.32
2017-01-03T01:36:08.122Z,1012.32
2017-01-03T01:37:08.060Z,1012.29
2017-01-03T01:38:07.997Z,1012.31
2017-01-03T01:39:07.933Z,1012.36
2017-01-03T01:40:07.870Z,1012.33
2017-01-03T01:41:07.807Z,1012.26
2017-01-03T01:42:07.743Z,1012.31
2017-01-03T01:43:07.680Z,1012.33
2017-01-03T01:44:07.618Z,1012.33
2017-01-03T01:45:07.554Z,1012.27
2017-01-03T01:46:07.492Z,1012.27
2017-01-03T01:47:07.428Z,1012.31
2017-01-03T01:48:07.365Z,1012.29
2017-01-03T01:49:07.302Z,1012.27
2017-01-03T01:50:07.241Z,1012.26
2017-01-03T01:51:07.178Z,1012.22
2017-01-03T01:52:07.114Z,1012.27
2017-01-03T01:53:07.050Z,1012.27
2017-01-03T01:54:06.987Z,1012.3
2017-01-03T01:55:06.923Z,1012.26
2017-01-03T01:56:06.860Z,1012.3
2017-01-03T01:57:06.799Z,1012.35
2017-01-03T01:58:06.737Z,1012.32
2017-01-03T01:59:06.673Z,1012.34
2017-01-03T02:00:06.608Z,1012.34
2017-01-03T02:01:06.546Z,1012.3
2017-01-03T02:02:06.483Z,1012.33
2017-01-03T02:03:06.419Z,1012.25
2017-01-03T02:04:06.358Z,1012.26
2017-01-03T02:05:06.294Z,1012.31
2017-01-03T02:06:06.232Z,1012.32
2017-01-03T02:07:06.168Z,1012.26
2017-01-03T02:08:06.105Z,1012.29
2017-01-03T02:09:06.044Z,1012.32
2017-01-03T02:10:05.979Z,1012.33
2017-01-03T02:11:05.918Z,1012.32
2017-01-03T02:12:05.854Z,1012.28
2017-01-03T02:13:05.791Z,1012.31
2017-01-03T02:14:05.728Z,1012.3
2017-01-03T02:15:05.666Z,1012.29
2017-01-03T02:16:05.601Z,1012.28
2017-01-03T02:17:05.540Z,1012.31
2017-01-03T02:18:05.476Z,1012.27
2017-01-03T02:19:05.413Z,1012.25
2017-01-03T02:20:05.350Z,1012.26
2017-01-03T02:21:05.286Z,1012.22
2017-01-03T02:22:05.223Z,1012.21
2017-01-03T02:23:05.161Z,1012.19
2017-01-03T02:24:05.098Z,1012.17
2017-01-03T02:25:05.039Z,1012.17
2017-01-03T02:26:04.972Z,1012.14
2017-01-03T02:27:04.908Z,1012.1
2017-01-03T02:28:04.845Z,1012.13
2017-01-03T02:29:04.782Z,1012.13
2017-01-03T02:30:04.722Z,1012.06
2017-01-03T02:31:04.657Z,1012.01
2017-01-03T02:32:04.594Z,1012.04
2017-01-03T02:33:04.531Z,1012.04
2017-01-03T02:34:04.469Z,1012.02
2017-01-03T02:35:04.411Z,1012.01
2017-01-03T02:36:04.351Z,1011.97
2017-01-03T02:37:04.279Z,1011.96
2017-01-03T02:38:04.218Z,1011.93
2017-01-03T02:39:04.155Z,1011.96
2017-01-03T02:40:04.091Z,1011.93
2017-01-03T02:41:04.029Z,1011.84
2017-01-03T02:42:03.966Z,1011.87
2017-01-03T02:43:03.903Z,1011.88
2017-01-03T02:44:03.841Z,1011.86
2017-01-03T02:45:03.778Z,1011.9
2017-01-03T02:46:03.714Z,1011.87
2017-01-03T02:47:03.652Z,1011.88
2017-01-03T02:48:03.587Z,1011.97
2017-01-03T02:49:03.525Z,1011.88
2017-01-03T02:50:03.461Z,1011.92
2017-01-03T02:51:03.398Z,1011.95
2017-01-03T02:52:03.336Z,1011.87
2017-01-03T02:53:03.273Z,1011.9
2017-01-03T02:54:03.209Z,1011.91
2017-01-03T02:55:03.148Z,1011.87
2017-01-03T02:56:03.084Z,1011.85
2017-01-03T02:57:03.021Z,1011.83
2017-01-03T02:58:02.961Z,1011.82
2017-01-03T02:59:02.896Z,1011.8
2017-01-03T03:00:02.833Z,1011.84
2017-01-03T03:01:02.769Z,1011.89
2017-01-03T03:02:02.708Z,1011.85
2017-01-03T03:03:02.643Z,1011.9
2017-01-03T03:04:02.580Z,1011.82
2017-01-03T03:05:02.519Z,1011.85
2017-01-03T03:06:02.454Z,1011.83
2017-01-03T03:07:02.391Z,1011.83
2017-01-03T03:08:02.328Z,1011.87
2017-01-03T03:09:02.266Z,1011.88
2017-01-03T03:10:02.203Z,1011.91
2017-01-03T03:11:02.141Z,1011.9
2017-01-03T03:12:02.077Z,1011.93
2017-01-03T03:13:02.015Z,1011.9
2017-01-03T03:14:01.952Z,1011.85
2017-01-03T03:15:01.888Z,1011.89
2017-01-03T03:16:01.824Z,1011.92
2017-01-03T03:17:01.763Z,1011.97
2017-01-03T03:18:01.700Z,1011.98
2017-01-03T03:19:01.638Z,1011.98
2017-01-03T03:20:01.572Z,1011.95
2017-01-03T03:21:01.511Z,1011.94
2017-01-03T03:22:01.448Z,1011.95
2017-01-03T03:23:01.385Z,1011.91
2017-01-03T03:24:01.322Z,1011.94
2017-01-03T03:25:01.260Z,1012.02
2017-01-03T03:26:01.197Z,1011.86
2017-01-03T03:27:01.133Z,1011.85
2017-01-03T03:28:01.070Z,1011.82
2017-01-03T03:29:01.013Z,1011.86
2017-01-03T03:30:00.943Z,1011.84
2017-01-03T03:31:00.881Z,1011.8
2017-01-03T03:32:00.819Z,1011.79
2017-01-03T03:33:00.754Z,1011.82
2017-01-03T03:34:00.692Z,1011.83
2017-01-03T03:35:00.629Z,1011.81
2017-01-03T03:36:00.569Z,1011.77
2017-01-03T03:37:00.504Z,1011.74
2017-01-03T03:38:00.442Z,1011.8
2017-01-03T03:39:00.377Z,1011.78
2017-01-03T03:40:00.315Z,1011.8
2017-01-03T03:41:00.250Z,1011.86
2017-01-03T03:42:00.189Z,1011.85
2017-01-03T03:43:00.126Z,1011.82
2017-01-03T03:44:00.062Z,1011.74
2017-01-03T03:44:59.998Z,1011.73
2017-01-03T03:45:59.936Z,1011.86
2017-01-03T03:46:59.873Z,1011.81
2017-01-03T03:47:59.812Z,1011.86
2017-01-03T03:48:59.746Z,1011.91
2017-01-03T03:49:59.685Z,1011.91
2017-01-03T03:50:59.623Z,1011.93
2017-01-03T03:51:59.559Z,1011.94
2017-01-03T03:52:59.496Z,1011.92
2017-01-03T03:53:59.433Z,1011.94
2017-01-03T03:54:59.370Z,1011.97
2017-01-03T03:55:59.307Z,1011.95
2017-01-03T03:56:59.245Z,1011.93
2017-01-03T03:57:59.181Z,1011.93
2017-01-03T03:58:59.119Z,1011.86
2017-01-03T03:59:59.055Z,1011.84
2017-01-03T04:00:58.992Z,1011.83
2017-01-03T04:01:58.928Z,1011.85
2017-01-03T04:02:58.865Z,1011.8
2017-01-03T04:03:58.804Z,1011.71
2017-01-03T04:04:58.741Z,1011.69
2017-01-03T04:05:58.680Z,1011.69
2017-01-03T04:06:58.626Z,1011.67
2017-01-03T04:07:58.552Z,1011.7
2017-01-03T04:08:58.488Z,1011.66
2017-01-03T04:09:58.427Z,1011.65
2017-01-03T04:10:58.363Z,1011.67
2017-01-03T04:11:58.301Z,1011.63
2017-01-03T04:12:58.237Z,1011.61
2017-01-03T04:13:58.175Z,1011.63
2017-01-03T04:14:58.112Z,1011.59
2017-01-03T04:15:58.049Z,1011.57
2017-01-03T04:16:57.985Z,1011.54
2017-01-03T04:17:57.922Z,1011.54
2017-01-03T04:18:57.860Z,1011.5
2017-01-03T04:19:57.796Z,1011.51
2017-01-03T04:20:57.734Z,1011.49
2017-01-03T04:21:57.670Z,1011.5
2017-01-03T04:22:57.608Z,1011.52
2017-01-03T04:23:57.545Z,1011.43
2017-01-03T04:24:57.481Z,1011.48
2017-01-03T04:25:57.420Z,1011.47
2017-01-03T04:26:57.357Z,1011.4
2017-01-03T04:27:57.292Z,1011.44
2017-01-03T04:28:57.229Z,1011.41
2017-01-03T04:29:57.167Z,1011.41
2017-01-03T04:30:57.105Z,1011.44
2017-01-03T04:31:57.040Z,1011.37
2017-01-03T04:32:56.977Z,1011.36
2017-01-03T04:33:56.917Z,1011.38
2017-01-03T04:34:56.852Z,1011.43
2017-01-03T04:35:56.788Z,1011.42
2017-01-03T04:36:56.726Z,1011.47
2017-01-03T04:37:56.664Z,1011.48
2017-01-03T04:38:56.620Z,1011.46
2017-01-03T04:39:56.537Z,1011.57
2017-01-03T04:40:56.473Z,1011.53
2017-01-03T04:41:56.412Z,1011.52
2017-01-03T04:42:56.347Z,1011.54
2017-01-03T04:43:56.286Z,1011.55
2017-01-03T04:44:56.222Z,1011.51
2017-01-03T04:45:56.161Z,1011.51
2017-01-03T04:46:56.096Z,1011.55
2017-01-03T04:47:56.032Z,1011.54
2017-01-03T04:48:55.971Z,1011.54
2017-01-03T04:49:55.908Z,1011.55
2017-01-03T04:50:55.844Z,1011.54
2017-01-03T04:51:55.781Z,1011.6
2017-01-03T04:52:55.719Z,1011.59
2017-01-03T04:53:55.655Z,1011.6
2017-01-03T04:54:55.594Z,1011.63
2017-01-03T04:55:55.529Z,1011.65
2017-01-03T04:56:55.467Z,1011.59
2017-01-03T04:57:55.402Z,1011.59
2017-01-03T04:58:55.340Z,1011.59
2017-01-03T04:59:55.279Z,1011.62
2017-01-03T05:00:55.215Z,1011.65
2017-01-03T05:01:55.152Z,1011.62
2017-01-03T05:02:55.088Z,1011.66
2017-01-03T05:03:55.025Z,1011.67
2017-01-03T05:04:54.962Z,1011.66
2017-01-03T05:05:54.898Z,1011.59
2017-01-03T05:06:54.838Z,1011.62
2017-01-03T05:07:54.774Z,1011.66
2017-01-03T05:08:54.710Z,1011.67
2017-01-03T05:09:54.647Z,1011.68
2017-01-03T05:10:54.585Z,1011.67
2017-01-03T05:11:54.521Z,1011.62
2017-01-03T05:12:54.458Z,1011.71
2017-01-03T05:13:54.395Z,1011.64
2017-01-03T05:14:54.332Z,1011.64
2017-01-03T05:15:54.268Z,1012.11
2017-01-03T05:16:54.206Z,1011.98
2017-01-03T05:17:54.143Z,1012.01
2017-01-03T05:18:54.079Z,1011.8
2017-01-03T05:19:54.015Z,1011.79
2017-01-03T05:20:53.957Z,1011.79
2017-01-03T05:21:53.891Z,1011.76
2017-01-03T05:22:53.827Z,1011.74
2017-01-03T05:23:53.764Z,1011.72
2017-01-03T05:24:53.700Z,1011.74
2017-01-03T05:25:53.639Z,1011.74
2017-01-03T05:26:53.575Z,1011.69
2017-01-03T05:27:53.512Z,1011.7
2017-01-03T05:28:53.449Z,1011.72
2017-01-03T05:29:53.385Z,1011.73
2017-01-03T05:30:53.323Z,1011.69
2017-01-03T05:31:53.261Z,1011.66
2017-01-03T05:32:53.195Z,1011.66
2017-01-03T05:33:53.134Z,1011.55
2017-01-03T05:34:53.071Z,1011.54
2017-01-03T05:35:53.007Z,1011.55
2017-01-03T05:36:52.944Z,1011.56
2017-01-03T05:37:52.880Z,1011.54
2017-01-03T05:38:52.819Z,1011.56
2017-01-03T05:39:52.755Z,1011.55
2017-01-03T05:40:52.691Z,1011.56
2017-01-03T05:41:52.628Z,1011.57
2017-01-03T05:42:52.565Z,1011.57
2017-01-03T05:43:52.504Z,1011.55
2017-01-03T05:44:52.440Z,1011.55
2017-01-03T05:45:52.378Z,1011.53
2017-01-03T05:46:52.314Z,1011.51
2017-01-03T05:47:52.253Z,1011.5
2017-01-03T05:48:52.188Z,1011.48
2017-01-03T05:49:52.126Z,1011.51
2017-01-03T05:50:52.064Z,1011.49
2017-01-03T05:51:52.001Z,1011.56
2017-01-03T05:52:51.935Z,1011.58
2017-01-03T05:53:51.873Z,1011.6
2017-01-03T05:54:51.811Z,1011.55
2017-01-03T05:55:51.748Z,1011.62
2017-01-03T05:56:51.684Z,1011.58
2017-01-03T05:57:51.621Z,1011.59
2017-01-03T05:58:51.561Z,1011.58
2017-01-03T05:59:51.494Z,1011.58
2017-01-03T06:00:51.431Z,1011.54
2017-01-03T06:01:51.369Z,1011.54
2017-01-03T06:02:51.306Z,1011.53
2017-01-03T06:03:51.243Z,1011.57
2017-01-03T06:04:51.180Z,1011.53
2017-01-03T06:05:51.117Z,1011.52
2017-01-03T06:06:51.052Z,1011.54
2017-01-03T06:07:50.991Z,1011.54
2017-01-03T06:08:50.928Z,1011.57
2017-01-03T06:09:50.864Z,1011.5
2017-01-03T06:10:50.800Z,1011.54
2017-01-03T06:11:50.739Z,1011.58
2017-01-03T06:12:50.675Z,1011.51
2017-01-03T06:13:50.612Z,1011.51
2017-01-03T06:14:50.549Z,1011.47
2017-01-03T06:15:50.487Z,1011.45
2017-01-03T06:16:50.423Z,1011.46
2017-01-03T06:17:50.360Z,1011.47
2017-01-03T06:18:50.296Z,1011.46
2017-01-03T06:19:50.233Z,1011.46
2017-01-03T06:20:50.172Z,1011.46
2017-01-03T06:21:50.108Z,1011.47
2017-01-03T06:22:50.045Z,1011.48
2017-01-03T06:23:49.981Z,1011.46
2017-01-03T06:24:49.920Z,1011.49
2017-01-03T06:25:49.855Z,1011.48
2017-01-03T06:26:49.792Z,1011.49
2017-01-03T06:27:49.731Z,1011.5
2017-01-03T06:28:49.676Z,1011.46
2017-01-03T06:29:49.605Z,1011.58
2017-01-03T06:30:49.542Z,1011.54
2017-01-03T06:31:49.479Z,1011.57
2017-01-03T06:32:49.414Z,1011.55
2017-01-03T06:33:49.352Z,1011.59
2017-01-03T06:34:49.290Z,1011.56
2017-01-03T06:35:49.225Z,1011.56
2017-01-03T06:36:49.163Z,1011.54
2017-01-03T06:37:49.100Z,1011.57
2017-01-03T06:38:49.037Z,1011.6
2017-01-03T06:39:48.974Z,1011.58
2017-01-03T06:40:48.911Z,1011.6
2017-01-03T06:41:48.848Z,1011.66
2017-01-03T06:42:48.784Z,1011.63
2017-01-03T06:43:48.722Z,1011.67
2017-01-03T06:44:48.659Z,1011.62
2017-01-03T06:45:48.597Z,1011.63
2017-01-03T06:46:48.533Z,1011.62
2017-01-03T06:47:48.469Z,1011.63
2017-01-03T06:48:48.406Z,1011.67
2017-01-03T06:49:48.343Z,1011.65
2017-01-03T06:50:48.280Z,1011.68
2017-01-03T06:51:48.218Z,1011.71
2017-01-03T06:52:48.155Z,1011.72
2017-01-03T06:53:48.092Z,1011.74
2017-01-03T06:54:48.029Z,1011.71
2017-01-03T06:55:47.965Z,1011.69
2017-01-03T06:56:47.901Z,1011.66
2017-01-03T06:57:47.849Z,1011.6
2017-01-03T06:58:47.777Z,1011.61
2017-01-03T06:59:47.712Z,1011.61
2017-01-03T07:00:47.651Z,1011.65
2017-01-03T07:01:47.586Z,1011.64
2017-01-03T07:02:47.524Z,1011.65
2017-01-03T07:03:47.462Z,1011.69
2017-01-03T07:04:47.398Z,1011.68
2017-01-03T07:05:47.334Z,1011.7
2017-01-03T07:06:47.271Z,1011.68
2017-01-03T07:07:47.210Z,1011.68
2017-01-03T07:08:47.147Z,1011.69
2017-01-03T07:09:47.082Z,1011.68
2017-01-03T07:10:47.021Z,1011.63
2017-01-03T07:11:46.958Z,1011.62
2017-01-03T07:12:46.894Z,1011.57
2017-01-03T07:13:46.831Z,1011.57
2017-01-03T07:14:46.769Z,1011.59
2017-01-03T07:15:46.707Z,1011.58
2017-01-03T07:16:46.641Z,1011.59
2017-01-03T07:17:46.580Z,1011.57
2017-01-03T07:18:46.517Z,1011.55
2017-01-03T07:19:46.452Z,1011.53
2017-01-03T07:20:46.391Z,1011.5
2017-01-03T07:21:46.327Z,1011.57
2017-01-03T07:22:46.267Z,1011.53
2017-01-03T07:23:46.201Z,1011.6
2017-01-03T07:24:46.138Z,1011.6
2017-01-03T07:25:46.076Z,1011.58
2017-01-03T07:26:46.013Z,1011.6
2017-01-03T07:27:45.949Z,1011.6
2017-01-03T07:28:45.888Z,1011.59
2017-01-03T07:29:45.825Z,1011.58
2017-01-03T07:30:45.762Z,1011.52
2017-01-03T07:31:45.698Z,1011.57
2017-01-03T07:32:45.636Z,1011.56
2017-01-03T07:33:45.571Z,1011.54
2017-01-03T07:34:45.510Z,1011.52
2017-01-03T07:35:45.446Z,1011.51
2017-01-03T07:36:45.384Z,1011.55
2017-01-03T07:37:45.321Z,1011.54
2017-01-03T07:38:45.256Z,1011.54
2017-01-03T07:39:45.195Z,1011.57
2017-01-03T07:40:45.131Z,1011.66
2017-01-03T07:41:45.068Z,1011.65
2017-01-03T07:42:45.005Z,1011.57
2017-01-03T07:43:44.942Z,1011.58
2017-01-03T07:44:44.880Z,1011.61
2017-01-03T07:45:44.815Z,1011.62
2017-01-03T07:46:44.754Z,1011.6
2017-01-03T07:47:44.691Z,1011.63
2017-01-03T07:48:44.628Z,1011.64
2017-01-03T07:49:44.563Z,1011.6
2017-01-03T07:50:44.500Z,1011.59
2017-01-03T07:51:44.438Z,1011.62
2017-01-03T07:52:44.373Z,1011.64
2017-01-03T07:53:44.312Z,1011.61
2017-01-03T07:54:44.248Z,1011.66
2017-01-03T07:55:44.187Z,1011.6
2017-01-03T07:56:44.122Z,1011.53
2017-01-03T07:57:44.059Z,1011.66
2017-01-03T07:58:43.999Z,1011.6
2017-01-03T07:59:43.934Z,1011.59
2017-01-03T08:00:43.872Z,1011.57
2017-01-03T08:01:43.807Z,1011.55
2017-01-03T08:02:43.746Z,1011.54
2017-01-03T08:03:43.680Z,1011.47
2017-01-03T08:04:43.618Z,1011.5
2017-01-03T08:05:43.557Z,1011.47
2017-01-03T08:06:43.491Z,1011.48
2017-01-03T08:07:43.429Z,1011.44
2017-01-03T08:08:43.403Z,1011.46
2017-01-03T08:09:43.302Z,1011.41
2017-01-03T08:10:43.240Z,1011.41
2017-01-03T08:11:43.177Z,1011.39
2017-01-03T08:12:43.115Z,1011.42
2017-01-03T08:13:43.052Z,1011.37
2017-01-03T08:14:42.989Z,1011.31
2017-01-03T08:15:42.934Z,1011.37
2017-01-03T08:16:42.862Z,1011.3
2017-01-03T08:17:42.798Z,1011.33
2017-01-03T08:18:42.737Z,1011.24
2017-01-03T08:19:42.876Z,1011.27
2017-01-03T08:20:42.609Z,1011.27
2017-01-03T08:21:42.548Z,1011.26
2017-01-03T08:22:42.483Z,1011.31
2017-01-03T08:23:42.422Z,1011.27
2017-01-03T08:24:42.359Z,1011.24
2017-01-03T08:25:42.295Z,1011.22
2017-01-03T08:26:42.232Z,1011.29
2017-01-03T08:27:42.168Z,1011.34
2017-01-03T08:28:42.107Z,1011.26
2017-01-03T08:29:42.043Z,1011.35
2017-01-03T08:30:41.980Z,1011.31
2017-01-03T08:31:41.917Z,1011.31
2017-01-03T08:32:41.854Z,1011.28
2017-01-03T08:33:41.791Z,1011.26
2017-01-03T08:34:41.728Z,1011.29
2017-01-03T08:35:41.665Z,1011.26
2017-01-03T08:36:41.600Z,1011.34
2017-01-03T08:37:41.539Z,1011.37
2017-01-03T08:38:41.475Z,1011.37
2017-01-03T08:39:41.412Z,1011.38
2017-01-03T08:40:41.348Z,1011.41
2017-01-03T08:41:41.286Z,1011.34
2017-01-03T08:42:41.224Z,1011.37
2017-01-03T08:43:41.161Z,1011.4
2017-01-03T08:44:41.097Z,1011.41
2017-01-03T08:45:41.035Z,1011.37
2017-01-03T08:46:40.971Z,1011.36
2017-01-03T08:47:40.908Z,1011.41
2017-01-03T08:48:40.844Z,1011.37
2017-01-03T08:49:40.782Z,1011.38
2017-01-03T08:50:40.720Z,1011.4
2017-01-03T08:51:40.654Z,1011.44
2017-01-03T08:52:40.593Z,1011.43
2017-01-03T08:53:40.530Z,1011.42
2017-01-03T08:54:40.467Z,1011.44
2017-01-03T08:55:40.405Z,1011.38
2017-01-03T08:56:40.346Z,1011.44
2017-01-03T08:57:40.280Z,1011.43
2017-01-03T08:58:40.283Z,1011.5
2017-01-03T08:59:40.152Z,1011.47
2017-01-03T09:00:40.090Z,1011.42
2017-01-03T09:01:40.028Z,1011.45
2017-01-03T09:02:39.963Z,1011.36
2017-01-03T09:03:39.900Z,1011.44
2017-01-03T09:04:39.837Z,1011.47
2017-01-03T09:05:39.775Z,1011.36
2017-01-03T09:06:39.716Z,1011.37
2017-01-03T09:07:39.666Z,1011.39
2017-01-03T09:08:39.586Z,1011.35
2017-01-03T09:09:39.561Z,1011.32
2017-01-03T09:10:39.479Z,1011.33
2017-01-03T09:11:39.432Z,1011.33
2017-01-03T09:12:39.336Z,1011.37
2017-01-03T09:13:39.269Z,1011.43
2017-01-03T09:14:39.207Z,1011.36
2017-01-03T09:15:39.144Z,1011.26
2017-01-03T09:16:39.081Z,1011.26
2017-01-03T09:17:39.018Z,1011.23
2017-01-03T09:18:38.956Z,1011.24
2017-01-03T09:19:38.892Z,1011.38
2017-01-03T09:20:38.829Z,1011.4
2017-01-03T09:21:38.765Z,1011.31
2017-01-03T09:22:38.704Z,1011.27
2017-01-03T09:23:38.639Z,1011.24
2017-01-03T09:24:38.577Z,1011.27
2017-01-03T09:25:38.515Z,1011.23
2017-01-03T09:26:38.452Z,1011.31
2017-01-03T09:27:38.429Z,1011.27
2017-01-03T09:28:38.332Z,1011.22
2017-01-03T09:29:38.263Z,1011.2
2017-01-03T09:30:38.200Z,1011.19
2017-01-03T09:31:38.135Z,1011.2
2017-01-03T09:32:38.074Z,1011.16
2017-01-03T09:33:38.011Z,1011.18
2017-01-03T09:34:37.948Z,1011.14
2017-01-03T09:35:37.885Z,1011.13
2017-01-03T09:36:37.823Z,1011.17
2017-01-03T09:37:37.760Z,1011.11
2017-01-03T09:38:37.696Z,1011.04
2017-01-03T09:39:37.635Z,1011.07
2017-01-03T09:40:37.571Z,1011.08
2017-01-03T09:41:37.509Z,1011.09
2017-01-03T09:42:37.444Z,1011.07
2017-01-03T09:43:37.382Z,1011.07
2017-01-03T09:44:37.322Z,1011.09
2017-01-03T09:45:37.290Z,1011.11
2017-01-03T09:46:37.379Z,1011.05
2017-01-03T09:47:37.131Z,1011.03
2017-01-03T09:48:37.068Z,1011.04
2017-01-03T09:49:37.009Z,1011.01
2017-01-03T09:50:36.943Z,1011.06
2017-01-03T09:51:36.887Z,1011.02
2017-01-03T09:52:36.822Z,1011.06
2017-01-03T09:53:36.776Z,1011.04
2017-01-03T09:54:36.693Z,1010.95
2017-01-03T09:55:36.630Z,1010.94
2017-01-03T09:56:36.568Z,1010.89
2017-01-03T09:57:36.504Z,1010.9
2017-01-03T09:58:36.449Z,1010.88
2017-01-03T09:59:36.388Z,1010.81
2017-01-03T10:00:36.316Z,1010.84
2017-01-03T10:01:36.254Z,1010.82
2017-01-03T10:02:36.190Z,1010.79
2017-01-03T10:03:36.233Z,1010.79
2017-01-03T10:04:36.107Z,1010.84
2017-01-03T10:05:36.002Z,1010.8
2017-01-03T10:06:35.940Z,1010.78
2017-01-03T10:07:35.878Z,1010.77
2017-01-03T10:08:35.903Z,1010.82
2017-01-03T10:09:35.753Z,1010.77
2017-01-03T10:10:35.691Z,1010.71
2017-01-03T10:11:35.626Z,1010.73
2017-01-03T10:12:35.565Z,1010.69
2017-01-03T10:13:35.507Z,1010.69
2017-01-03T10:14:35.443Z,1010.64
2017-01-03T10:15:35.377Z,1010.76
2017-01-03T10:16:35.332Z,1010.7
2017-01-03T10:17:35.263Z,1010.63
2017-01-03T10:18:35.211Z,1010.64
2017-01-03T10:19:35.148Z,1010.63
2017-01-03T10:20:35.240Z,1010.59
2017-01-03T10:21:35.001Z,1010.64
2017-01-03T10:22:34.947Z,1010.58
2017-01-03T10:23:34.875Z,1010.66
2017-01-03T10:24:34.867Z,1010.76
2017-01-03T10:25:34.753Z,1010.74
2017-01-03T10:26:34.687Z,1010.75
2017-01-03T10:27:34.630Z,1010.71
2017-01-03T10:28:34.563Z,1010.7
2017-01-03T10:29:34.527Z,1010.6
2017-01-03T10:30:34.437Z,1010.6
2017-01-03T10:31:34.457Z,1010.54
2017-01-03T10:32:34.396Z,1010.55
2017-01-03T10:33:34.262Z,1010.56
2017-01-03T10:34:34.296Z,1010.63
2017-01-03T10:35:34.203Z,1010.6
2017-01-03T10:36:34.063Z,1010.53
2017-01-03T10:37:34.001Z,1010.52
2017-01-03T10:38:33.985Z,1010.48
2017-01-03T10:39:33.886Z,1010.49
2017-01-03T10:40:33.812Z,1010.47
2017-01-03T10:41:33.750Z,1010.49
2017-01-03T10:42:33.696Z,1010.48
2017-01-03T10:43:33.743Z,1010.51
2017-01-03T10:44:33.791Z,1010.45
2017-01-03T10:45:33.508Z,1010.46
2017-01-03T10:46:33.579Z,1010.43
2017-01-03T10:47:33.509Z,1010.39
2017-01-03T10:48:33.311Z,1010.45
2017-01-03T10:49:33.394Z,1010.29
2017-01-03T10:50:33.362Z,1010.33
2017-01-03T10:51:33.123Z,1010.36
2017-01-03T10:52:33.172Z,1010.29
2017-01-03T10:53:33.008Z,1010.27
2017-01-03T10:54:32.947Z,1010.31
2017-01-03T10:55:32.986Z,1010.28
2017-01-03T10:56:32.896Z,1010.27
2017-01-03T10:57:32.786Z,1010.18
2017-01-03T10:58:32.686Z,1010.24
2017-01-03T10:59:32.849Z,1010.23
2017-01-03T11:00:32.561Z,1010.21
2017-01-03T11:01:32.498Z,1010.29
2017-01-03T11:02:32.437Z,1010.27
2017-01-03T11:03:32.382Z,1010.28
2017-01-03T11:04:32.313Z,1010.24
2017-01-03T11:05:32.249Z,1010.27
2017-01-03T11:06:32.187Z,1010.24
2017-01-03T11:07:32.125Z,1010.21
2017-01-03T11:08:32.063Z,1010.23
2017-01-03T11:09:32.001Z,1010.23
2017-01-03T11:10:31.936Z,1010.22
2017-01-03T11:11:31.875Z,1010.18
2017-01-03T11:12:31.812Z,1010.17
2017-01-03T11:13:31.843Z,1010.09
2017-01-03T11:14:31.686Z,1010.12
2017-01-03T11:15:31.624Z,1009.99
2017-01-03T11:16:31.562Z,1009.96
2017-01-03T11:17:31.500Z,1009.91
2017-01-03T11:18:31.439Z,1009.93
2017-01-03T11:19:31.376Z,1009.88
2017-01-03T11:20:31.314Z,1009.89
2017-01-03T11:21:31.250Z,1009.87
2017-01-03T11:22:31.187Z,1009.84
2017-01-03T11:23:31.124Z,1009.86
2017-01-03T11:24:31.066Z,1009.77
2017-01-03T11:25:30.999Z,1009.72
2017-01-03T11:26:30.938Z,1009.72
2017-01-03T11:27:30.875Z,1009.77
2017-01-03T11:28:30.813Z,1009.78
2017-01-03T11:29:30.753Z,1009.76
2017-01-03T11:30:30.686Z,1009.76
2017-01-03T11:31:30.626Z,1009.77
2017-01-03T11:32:30.563Z,1009.68
2017-01-03T11:33:30.499Z,1009.75
2017-01-03T11:34:30.444Z,1009.71
2017-01-03T11:35:30.374Z,1009.75
2017-01-03T11:36:30.311Z,1009.72
2017-01-03T11:37:30.249Z,1009.7
2017-01-03T11:38:30.187Z,1009.72
2017-01-03T11:39:30.123Z,1009.73
2017-01-03T11:40:30.064Z,1009.74
2017-01-03T11:41:30.000Z,1009.75
2017-01-03T11:42:29.941Z,1009.67
2017-01-03T11:43:29.877Z,1009.69
2017-01-03T11:44:29.812Z,1009.7
2017-01-03T11:45:29.750Z,1009.62
2017-01-03T11:46:29.685Z,1009.59
2017-01-03T11:47:29.627Z,1009.64
2017-01-03T11:48:29.561Z,1009.65
2017-01-03T11:49:29.500Z,1009.63
2017-01-03T11:50:29.436Z,1009.55
2017-01-03T11:51:29.374Z,1009.54
2017-01-03T11:52:29.312Z,1009.45
2017-01-03T11:53:29.249Z,1009.45
2017-01-03T11:54:29.185Z,1009.42
2017-01-03T11:55:29.125Z,1009.4
2017-01-03T11:56:29.062Z,1009.41
2017-01-03T11:57:29.089Z,1009.41
2017-01-03T11:58:28.937Z,1009.34
2017-01-03T11:59:28.873Z,1009.28
2017-01-03T12:00:28.812Z,1009.3
2017-01-03T12:01:28.749Z,1009.24
2017-01-03T12:02:28.687Z,1009.21
2017-01-03T12:03:28.624Z,1009.17
2017-01-03T12:04:28.562Z,1009.15
2017-01-03T12:05:28.500Z,1009.12
2017-01-03T12:06:28.479Z,1009.19
2017-01-03T12:07:28.374Z,1009.1
2017-01-03T12:08:28.310Z,1009